CYQK

Kenora Airport

Kenora, Ontario, Canada
TAF CYQK 190138Z 1902/1914 VRB03KT P6SM FEW240 FM191200 24005KT 6SM IC SKC RMK NXT FCST BY 190800Z
Issued Valid From Valid To
Jan-19 @ 01:38 UTC
(an hour ago)
Jan-19 @ 02:00 UTC
(54 minutes ago)
Jan-19 @ 14:00 UTC
(in 11 hours)
Jan-19 @ 02:00 to Jan-19 @ 12:00
TAF CYQK 190138Z 1902/1914 VRB03KT P6SM FEW240
Wind Visibility Clouds
Variable at 3 knots Greater than 6 miles
  • Few at 24,000' AGL
From Jan-19 @ 12:00 to Jan-19 @ 14:00
FM191200 24005KT 6SM IC SKC RMK NXT FCST BY 190800Z
Wind Visibility Clouds Conditions
240° at 5 knots 6 miles
  • Clear skies
  • Ice crystals
TAF CYQK 190138Z 1902/1914 VRB03KT P6SM FEW240 FM191200 24005KT 6SM IC SKC RMK NXT FCST BY 190800Z
Issued Jan-19 @ 01:38 UTC
(an hour ago)
Valid From Jan-19 @ 02:00 UTC
(54 minutes ago)
Valid To Jan-19 @ 14:00 UTC
(in 11 hours)
Jan-19 @ 02:00 - Jan-19 @ 12:00
Wind Visibility
Variable at 3 knots Greater than 6 miles
Clouds
  • Few at 24,000' AGL
From Jan-19 @ 12:00 - Jan-19 @ 14:00
Wind Visibility
240° at 5 knots 6 miles
Clouds
  • Clear skies
Conditions
  • Ice crystals